Seabourn Odyssey — C6XC6 — position and weather

sailwx.info

Track history (hours):
 
Tides and Currents Weather Stations Pressure Air Temp Water Temp Dewpoint Dewpoint Depression Visibility Wind Speed Wind Dir Waves Ship Positions

Seabourn Odyssey

Last reported at 2017-Nov-18 10:52 UTC. Time now 2017-Nov-18 14:19 UTC.
Position N 15°60' W 061°46'.

Length 198 m; draft 6.7 m.

Type: Ship. MMSI: 309416000.

Date/timePositionNaut miles runAvg speedWind from/ knotsBaromVisibWave heightAir tempDewpointWater temp
2017-Nov-18 10:52N 15°60' W 061°46'26 7.8
2017-Nov-18 07:31N 16°16' W 062°07'2 7.1
2017-Nov-18 07:12N 16°17' W 062°09'1 6.9
2017-Nov-18 07:00N 16°18' W 062°10'3 6.8
2017-Nov-18 06:30N 16°20' W 062°13'3 7.0
2017-Nov-18 06:00N 16°23' W 062°16'3 6.9
2017-Nov-18 05:30N 16°25' W 062°18'4 7.0
2017-Nov-18 05:00N 16°27' W 062°21'4 7.1
2017-Nov-18 04:30N 16°29' W 062°24'4 6.9
2017-Nov-18 03:59N 16°32' W 062°27'3 7.0
2017-Nov-18 03:30N 16°34' W 062°30'3 7.0
2017-Nov-18 03:00N 16°37' W 062°32'4 7.3
2017-Nov-18 02:30N 16°40' W 062°33'29 1.4
2017-Nov-17 05:55N 17°08' W 062°22'3 7.2
2017-Nov-17 05:28N 17°09' W 062°19'4 7.9
2017-Nov-17 05:00N 17°11' W 062°16'613.0
2017-Nov-17 04:30N 17°15' W 062°10'612.6
2017-Nov-17 04:00N 17°13' W 062°03'612.1
2017-Nov-17 03:30N 17°10' W 061°58'510.9
2017-Nov-17 03:00N 17°08' W 061°53'2 3.8
2017-Nov-17 02:30N 17°07' W 061°51'0 0.0
2017-Nov-17 02:00N 17°07' W 061°51'0 0.0
2017-Nov-17 01:30N 17°07' W 061°51'0 0.0
2017-Nov-17 01:00N 17°07' W 061°51'0 0.0
2017-Nov-17 00:30N 17°07' W 061°51'0 0.0
2017-Nov-17 00:00N 17°07' W 061°51'0 0.0
2017-Nov-16 23:30N 17°07' W 061°51'0 0.0
2017-Nov-16 23:00N 17°07' W 061°51'0 0.0
2017-Nov-16 22:30N 17°07' W 061°51'0 0.0
2017-Nov-16 22:00N 17°07' W 061°51'0 0.0
2017-Nov-16 21:30N 17°07' W 061°51'0 0.0
2017-Nov-16 21:00N 17°07' W 061°51'0 0.0
2017-Nov-16 20:30N 17°07' W 061°51'0 0.0
2017-Nov-16 20:00N 17°07' W 061°51'0 0.0
2017-Nov-16 19:30N 17°07' W 061°51'0 0.0
2017-Nov-16 19:00N 17°07' W 061°51'0 0.0
2017-Nov-16 18:30N 17°07' W 061°51'0 0.0
2017-Nov-16 18:00N 17°07' W 061°51'0 0.0
2017-Nov-16 17:30N 17°07' W 061°51'0 0.0
2017-Nov-16 17:00N 17°07' W 061°51'0 0.0
2017-Nov-16 16:30N 17°07' W 061°51'0 0.0
2017-Nov-16 16:00N 17°07' W 061°51'0 0.0
2017-Nov-16 15:30N 17°07' W 061°51'0 0.0
2017-Nov-16 15:00N 17°07' W 061°51'0 0.0
2017-Nov-16 14:30N 17°07' W 061°51'0 0.0
2017-Nov-16 14:00N 17°07' W 061°51'0 0.0
2017-Nov-16 13:30N 17°07' W 061°51'0 0.0
2017-Nov-16 13:00N 17°07' W 061°51'0 0.0
2017-Nov-16 12:30N 17°07' W 061°51'0 0.0
2017-Nov-16 12:00N 17°07' W 061°51'0 1.0
2017-Nov-16 11:30N 17°07' W 061°51'3 6.8
2017-Nov-16 11:00N 17°09' W 061°55'510.3
2017-Nov-16 10:30N 17°11' W 061°60'611.9
2017-Nov-16 10:00N 17°13' W 062°05'612.4
2017-Nov-16 09:30N 17°16' W 062°11'612.7
2017-Nov-16 09:00N 17°19' W 062°17'  
2017-Nov-12 01:29N 25°31' W 079°56'815.6
2017-Nov-12 01:00N 25°38' W 079°59'815.1
2017-Nov-12 00:30N 25°44' W 080°03'5 9.6
2017-Nov-12 00:00N 25°46' W 080°09'2 3.5
2017-Nov-11 23:30N 25°46' W 080°10'0 0.4
2017-Nov-11 22:52N 25°46' W 080°11'0 0.0
2017-Nov-11 22:25N 25°46' W 080°11'0 0.0
2017-Nov-11 21:52N 25°46' W 080°11'0 0.0
2017-Nov-11 21:28N 25°46' W 080°11'0 0.0
2017-Nov-11 20:58N 25°46' W 080°11'0 0.0
2017-Nov-11 20:22N 25°46' W 080°11'0 0.0
2017-Nov-11 19:58N 25°46' W 080°11'0 0.0
2017-Nov-11 19:22N 25°46' W 080°11'0 0.0
2017-Nov-11 18:55N 25°46' W 080°11'0 0.0
2017-Nov-11 18:28N 25°46' W 080°11'0 0.0
2017-Nov-11 17:58N 25°46' W 080°11'0 0.0
2017-Nov-11 17:25N 25°46' W 080°11'0 0.0
2017-Nov-11 16:55N 25°46' W 080°11'0 0.0
2017-Nov-11 16:28N 25°46' W 080°11'0 0.0
2017-Nov-11 15:58N 25°46' W 080°11'0 0.0
2017-Nov-11 15:28N 25°46' W 080°11'0 0.0
2017-Nov-11 14:58N 25°46' W 080°11'0 0.0
2017-Nov-11 14:28N 25°46' W 080°11'0 0.0
2017-Nov-11 13:55N 25°46' W 080°11'0 0.0
2017-Nov-11 13:28N 25°46' W 080°11'0 0.0
2017-Nov-11 12:58N 25°46' W 080°11'0 0.0
2017-Nov-11 12:28N 25°46' W 080°11'0 0.2
2017-Nov-11 12:00N 25°46' W 080°11'2 4.6
2017-Nov-11 11:30N 25°46' W 080°08'510.1
2017-Nov-11 11:00N 25°48' W 080°03'2 3.2
2017-Nov-11 10:30N 25°48' W 080°01'611.1
2017-Nov-11 10:00N 25°50' W 079°55'713.6
2017-Nov-11 09:30N 25°53' W 079°49'  
Track history (hours):
 
Tides and Currents Weather Stations Pressure Air Temp Water Temp Dewpoint Dewpoint Depression Visibility Wind Speed Wind Dir Waves Ship Positions

Seabourn Odyssey

Last reported at 2017-Nov-18 10:52 UTC. Time now 2017-Nov-18 14:19 UTC.
Position N 15°60' W 061°46'.

Length 198 m; draft 6.7 m.

Type: Ship. MMSI: 309416000.

Date/timePositionNaut miles runAvg speedWind from/ knotsBaromVisibWave heightAir tempDewpointWater temp
2017-Nov-18 10:52N 15°60' W 061°46'26 7.8
2017-Nov-18 07:31N 16°16' W 062°07'2 7.1
2017-Nov-18 07:12N 16°17' W 062°09'1 6.9
2017-Nov-18 07:00N 16°18' W 062°10'3 6.8
2017-Nov-18 06:30N 16°20' W 062°13'3 7.0
2017-Nov-18 06:00N 16°23' W 062°16'3 6.9
2017-Nov-18 05:30N 16°25' W 062°18'4 7.0
2017-Nov-18 05:00N 16°27' W 062°21'4 7.1
2017-Nov-18 04:30N 16°29' W 062°24'4 6.9
2017-Nov-18 03:59N 16°32' W 062°27'3 7.0
2017-Nov-18 03:30N 16°34' W 062°30'3 7.0
2017-Nov-18 03:00N 16°37' W 062°32'4 7.3
2017-Nov-18 02:30N 16°40' W 062°33'29 1.4
2017-Nov-17 05:55N 17°08' W 062°22'3 7.2
2017-Nov-17 05:28N 17°09' W 062°19'4 7.9
2017-Nov-17 05:00N 17°11' W 062°16'613.0
2017-Nov-17 04:30N 17°15' W 062°10'612.6
2017-Nov-17 04:00N 17°13' W 062°03'612.1
2017-Nov-17 03:30N 17°10' W 061°58'510.9
2017-Nov-17 03:00N 17°08' W 061°53'2 3.8
2017-Nov-17 02:30N 17°07' W 061°51'0 0.0
2017-Nov-17 02:00N 17°07' W 061°51'0 0.0
2017-Nov-17 01:30N 17°07' W 061°51'0 0.0
2017-Nov-17 01:00N 17°07' W 061°51'0 0.0
2017-Nov-17 00:30N 17°07' W 061°51'0 0.0
2017-Nov-17 00:00N 17°07' W 061°51'0 0.0
2017-Nov-16 23:30N 17°07' W 061°51'0 0.0
2017-Nov-16 23:00N 17°07' W 061°51'0 0.0
2017-Nov-16 22:30N 17°07' W 061°51'0 0.0
2017-Nov-16 22:00N 17°07' W 061°51'0 0.0
2017-Nov-16 21:30N 17°07' W 061°51'0 0.0
2017-Nov-16 21:00N 17°07' W 061°51'0 0.0
2017-Nov-16 20:30N 17°07' W 061°51'0 0.0
2017-Nov-16 20:00N 17°07' W 061°51'0 0.0
2017-Nov-16 19:30N 17°07' W 061°51'0 0.0
2017-Nov-16 19:00N 17°07' W 061°51'0 0.0
2017-Nov-16 18:30N 17°07' W 061°51'0 0.0
2017-Nov-16 18:00N 17°07' W 061°51'0 0.0
2017-Nov-16 17:30N 17°07' W 061°51'0 0.0
2017-Nov-16 17:00N 17°07' W 061°51'0 0.0
2017-Nov-16 16:30N 17°07' W 061°51'0 0.0
2017-Nov-16 16:00N 17°07' W 061°51'0 0.0
2017-Nov-16 15:30N 17°07' W 061°51'0 0.0
2017-Nov-16 15:00N 17°07' W 061°51'0 0.0
2017-Nov-16 14:30N 17°07' W 061°51'0 0.0
2017-Nov-16 14:00N 17°07' W 061°51'0 0.0
2017-Nov-16 13:30N 17°07' W 061°51'0 0.0
2017-Nov-16 13:00N 17°07' W 061°51'0 0.0
2017-Nov-16 12:30N 17°07' W 061°51'0 0.0
2017-Nov-16 12:00N 17°07' W 061°51'0 1.0
2017-Nov-16 11:30N 17°07' W 061°51'3 6.8
2017-Nov-16 11:00N 17°09' W 061°55'510.3
2017-Nov-16 10:30N 17°11' W 061°60'611.9
2017-Nov-16 10:00N 17°13' W 062°05'612.4
2017-Nov-16 09:30N 17°16' W 062°11'612.7
2017-Nov-16 09:00N 17°19' W 062°17'  
2017-Nov-12 01:29N 25°31' W 079°56'815.6
2017-Nov-12 01:00N 25°38' W 079°59'815.1
2017-Nov-12 00:30N 25°44' W 080°03'5 9.6
2017-Nov-12 00:00N 25°46' W 080°09'2 3.5
2017-Nov-11 23:30N 25°46' W 080°10'0 0.4
2017-Nov-11 22:52N 25°46' W 080°11'0 0.0
2017-Nov-11 22:25N 25°46' W 080°11'0 0.0
2017-Nov-11 21:52N 25°46' W 080°11'0 0.0
2017-Nov-11 21:28N 25°46' W 080°11'0 0.0
2017-Nov-11 20:58N 25°46' W 080°11'0 0.0
2017-Nov-11 20:22N 25°46' W 080°11'0 0.0
2017-Nov-11 19:58N 25°46' W 080°11'0 0.0
2017-Nov-11 19:22N 25°46' W 080°11'0 0.0
2017-Nov-11 18:55N 25°46' W 080°11'0 0.0
2017-Nov-11 18:28N 25°46' W 080°11'0 0.0
2017-Nov-11 17:58N 25°46' W 080°11'0 0.0
2017-Nov-11 17:25N 25°46' W 080°11'0 0.0
2017-Nov-11 16:55N 25°46' W 080°11'0 0.0
2017-Nov-11 16:28N 25°46' W 080°11'0 0.0
2017-Nov-11 15:58N 25°46' W 080°11'0 0.0
2017-Nov-11 15:28N 25°46' W 080°11'0 0.0
2017-Nov-11 14:58N 25°46' W 080°11'0 0.0
2017-Nov-11 14:28N 25°46' W 080°11'0 0.0
2017-Nov-11 13:55N 25°46' W 080°11'0 0.0
2017-Nov-11 13:28N 25°46' W 080°11'0 0.0
2017-Nov-11 12:58N 25°46' W 080°11'0 0.0
2017-Nov-11 12:28N 25°46' W 080°11'0 0.2
2017-Nov-11 12:00N 25°46' W 080°11'2 4.6
2017-Nov-11 11:30N 25°46' W 080°08'510.1
2017-Nov-11 11:00N 25°48' W 080°03'2 3.2
2017-Nov-11 10:30N 25°48' W 080°01'611.1
2017-Nov-11 10:00N 25°50' W 079°55'713.6
2017-Nov-11 09:30N 25°53' W 079°49'  

Dump ship's entire track history